Time;durP1;ratioP1;P1;durP2;ratioP2;P2;SDS_P1;SDS_P2;PMS_P1;PMS_P2;Temp;Humidity;BMP_temperature;BMP_pressure;BME280_temperature;BME280_humidity;BME280_pressure;Samples;Min_cycle;Max_cycle;Signal;HPM_P1;HPM_P2
2023/12/13 00:01:31;;;;;;;31.80;19.40;;;;;;;6.29;90.00;99211.62;131516;1251;106698;-84
2023/12/13 00:05:11;;;;;;;31.70;19.30;;;;;;;6.27;90.04;99210.77;131578;1251;107801;-83
2023/12/13 00:08:19;;;;;;;30.10;19.20;;;;;;;6.29;90.21;99208.66;131626;1251;108673;-83
2023/12/13 00:11:33;;;;;;;33.00;18.80;;;;;;;6.28;90.16;99204.13;131532;1251;106434;-83
2023/12/13 00:14:45;;;;;;;27.40;16.70;;;;;;;6.24;89.94;99197.45;131488;1252;105638;-84
2023/12/13 00:17:58;;;;;;;30.30;17.50;;;;;;;6.21;90.01;99192.13;131443;1247;107738;-85
2023/12/13 00:21:26;;;;;;;34.20;20.40;;;;;;;6.21;90.16;99196.36;131482;1251;106472;-84
2023/12/13 00:28:14;;;;;;;31.90;20.20;;;;;;;6.25;90.19;99185.90;131515;1251;107707;-84
2023/12/13 00:31:30;;;;;;;30.90;19.60;;;;;;;6.22;90.07;99188.27;131513;1251;107475;-84
2023/12/13 00:34:46;;;;;;;36.90;21.00;;;;;;;6.21;89.86;99180.27;131539;1251;107515;-85
2023/12/13 00:38:04;;;;;;;33.00;20.20;;;;;;;6.18;89.98;99175.42;131464;1250;107596;-84
2023/12/13 00:41:27;;;;;;;31.50;17.40;;;;;;;6.14;89.92;99176.73;131328;1247;107450;-84
2023/12/13 00:44:34;;;;;;;28.70;16.20;;;;;;;6.13;89.93;99170.50;131453;1253;107452;-84
2023/12/13 00:47:40;;;;;;;38.90;21.70;;;;;;;6.12;89.99;99165.44;131439;1251;106124;-84
2023/12/13 00:51:11;;;;;;;40.50;23.00;;;;;;;6.12;89.81;99166.53;131417;1251;106447;-84
2023/12/13 00:54:16;;;;;;;43.40;25.00;;;;;;;6.11;89.96;99171.42;131167;1256;107393;-84
2023/12/13 00:57:30;;;;;;;49.10;26.70;;;;;;;6.09;89.81;99171.59;131422;1247;107330;-84
2023/12/13 01:04:02;;;;;;;47.30;25.20;;;;;;;6.07;89.78;99159.59;131462;1247;107514;-84
2023/12/13 01:07:08;;;;;;;44.90;26.30;;;;;;;6.06;89.76;99162.70;131515;1254;107484;-85
2023/12/13 01:10:22;;;;;;;43.60;22.10;;;;;;;6.03;89.94;99165.48;131517;1248;107251;-85
2023/12/13 01:13:28;;;;;;;39.90;20.60;;;;;;;5.99;89.89;99160.24;131356;1251;187437;-85
2023/12/13 01:16:57;;;;;;;40.60;22.30;;;;;;;6.00;89.82;99157.67;131506;1248;107607;-85
2023/12/13 01:20:19;;;;;;;37.50;22.50;;;;;;;6.02;89.74;99156.77;131531;1253;107570;-84
2023/12/13 01:23:27;;;;;;;40.70;22.60;;;;;;;6.05;89.91;99156.23;131496;1252;107604;-85
2023/12/13 01:26:53;;;;;;;39.30;22.50;;;;;;;6.06;89.83;99152.83;131463;1251;107435;-85
2023/12/13 01:29:59;;;;;;;36.80;20.80;;;;;;;6.04;89.89;99147.88;131377;1251;107559;-85
2023/12/13 01:33:04;;;;;;;38.20;22.40;;;;;;;6.03;89.92;99142.70;131496;1248;107239;-84
2023/12/13 01:36:25;;;;;;;38.10;19.60;;;;;;;6.03;89.90;99137.10;131452;1248;107433;-85
2023/12/13 01:43:23;;;;;;;38.90;20.00;;;;;;;5.97;90.09;99145.73;131431;1252;107680;-84
2023/12/13 01:47:02;;;;;;;41.20;19.80;;;;;;;5.97;90.14;99136.63;131457;1251;107625;-84
2023/12/13 01:50:18;;;;;;;46.30;23.50;;;;;;;6.00;89.90;99135.92;131517;1247;107309;-84
2023/12/13 01:53:27;;;;;;;40.80;21.10;;;;;;;5.99;90.12;99131.14;131491;1251;107558;-84
2023/12/13 01:56:51;;;;;;;39.00;19.00;;;;;;;5.97;90.04;99130.63;131417;1253;107636;-84
2023/12/13 01:59:57;;;;;;;36.80;19.30;;;;;;;5.96;90.01;99126.80;131589;1251;107501;-84
2023/12/13 02:06:38;;;;;;;30.60;15.70;;;;;;;5.94;90.14;99123.96;127000;1297;636526;-84
2023/12/13 02:09:43;;;;;;;32.00;16.90;;;;;;;5.90;90.18;99124.34;130186;1267;107576;-84
2023/12/13 02:13:16;;;;;;;33.00;16.80;;;;;;;5.91;90.40;99128.13;130684;1257;107531;-84
2023/12/13 02:16:36;;;;;;;33.20;17.00;;;;;;;5.98;90.16;99128.04;130662;1257;107851;-84
2023/12/13 02:19:42;;;;;;;33.20;17.00;;;;;;;6.01;90.26;99124.34;130747;1254;221886;-84
2023/12/13 02:22:47;;;;;;;35.00;17.50;;;;;;;6.03;90.27;99120.86;131072;1254;107449;-84
2023/12/13 02:25:59;;;;;;;37.20;18.50;;;;;;;6.03;90.46;99116.91;131065;1257;107449;-84
2023/12/13 02:29:05;;;;;;;37.70;17.20;;;;;;;6.00;90.25;99109.27;131132;1256;107652;-84
2023/12/13 02:32:24;;;;;;;39.10;17.50;;;;;;;5.99;90.42;99105.73;131159;1261;107564;-84
2023/12/13 02:35:49;;;;;;;42.40;19.30;;;;;;;5.99;90.49;99099.01;131110;1270;107475;-84
2023/12/13 02:38:54;;;;;;;40.50;18.10;;;;;;;6.00;90.78;99099.19;131101;1254;107455;-84
2023/12/13 02:42:15;;;;;;;37.80;18.20;;;;;;;6.01;90.24;99095.08;131112;1254;107457;-84
2023/12/13 02:45:21;;;;;;;39.20;18.50;;;;;;;6.02;90.45;99091.98;131069;1252;107721;-84
2023/12/13 02:48:26;;;;;;;38.60;19.00;;;;;;;6.01;90.29;99091.95;131122;1257;106766;-84
2023/12/13 02:51:32;;;;;;;38.20;18.50;;;;;;;5.99;90.44;99093.17;131118;1256;106654;-84
2023/12/13 02:55:09;;;;;;;38.00;17.30;;;;;;;5.96;90.38;99087.48;131062;1257;107584;-84
2023/12/13 02:58:52;;;;;;;41.30;18.70;;;;;;;5.93;90.50;99076.77;131157;1255;107347;-84
2023/12/13 03:01:57;;;;;;;36.70;17.80;;;;;;;5.93;90.75;99077.17;131130;1266;107548;-84
2023/12/13 03:05:03;;;;;;;42.40;20.40;;;;;;;5.96;90.66;99074.94;131053;1254;107525;-84
2023/12/13 03:08:38;;;;;;;43.50;20.40;;;;;;;5.98;90.72;99069.55;131079;1251;107527;-85
2023/12/13 03:12:08;;;;;;;40.50;20.80;;;;;;;6.01;90.49;99069.10;131251;1264;107526;-85
2023/12/13 03:15:14;;;;;;;41.40;20.20;;;;;;;6.01;90.51;99064.66;131307;1254;107531;-85
2023/12/13 03:18:19;;;;;;;41.90;21.20;;;;;;;5.98;90.69;99064.11;131232;1251;107536;-85
2023/12/13 03:21:58;;;;;;;42.80;19.50;;;;;;;5.96;90.63;99065.41;131292;1251;107517;-84
2023/12/13 03:25:05;;;;;;;43.20;19.40;;;;;;;5.95;90.74;99064.80;131024;1257;107337;-85
2023/12/13 03:28:10;;;;;;;43.40;21.50;;;;;;;5.95;90.65;99065.98;131036;1257;107270;-84
2023/12/13 03:31:16;;;;;;;42.60;21.50;;;;;;;5.99;90.57;99066.34;131107;1251;107494;-83
2023/12/13 03:34:55;;;;;;;42.20;21.10;;;;;;;6.00;90.34;99067.63;131110;1255;107509;-84
2023/12/13 03:38:01;;;;;;;44.00;20.70;;;;;;;5.98;90.66;99066.00;131501;1256;107524;-84
2023/12/13 03:41:07;;;;;;;42.80;20.90;;;;;;;5.99;90.46;99064.89;131026;1256;107636;-84
2023/12/13 03:44:13;;;;;;;41.50;20.70;;;;;;;5.99;90.51;99062.98;131011;1254;106865;-83
2023/12/13 03:47:18;;;;;;;42.70;19.50;;;;;;;5.95;90.64;99069.40;131031;1264;108634;-83
2023/12/13 03:50:24;;;;;;;43.40;19.90;;;;;;;5.92;90.90;99070.89;131046;1258;105473;-80
2023/12/13 03:53:30;;;;;;;43.50;20.50;;;;;;;5.93;90.95;99069.23;131279;1257;106709;-80
2023/12/13 03:56:35;;;;;;;41.70;21.20;;;;;;;5.95;90.79;99068.81;130940;1251;107602;-80
2023/12/13 03:59:41;;;;;;;43.40;22.00;;;;;;;5.95;90.54;99065.44;130902;1257;106751;-80
2023/12/13 04:02:46;;;;;;;46.80;22.90;;;;;;;5.94;90.52;99065.04;130912;1257;105770;-80
2023/12/13 04:05:52;;;;;;;42.00;21.00;;;;;;;5.93;90.57;99062.29;130975;1255;107494;-80
2023/12/13 04:08:58;;;;;;;46.90;23.30;;;;;;;5.90;90.58;99061.84;130924;1256;107658;-79
2023/12/13 04:12:04;;;;;;;47.70;21.90;;;;;;;5.87;90.75;99064.77;130975;1258;107544;-81
2023/12/13 04:15:11;;;;;;;44.10;21.30;;;;;;;5.84;90.77;99066.81;131128;1256;107515;-81
2023/12/13 04:18:16;;;;;;;46.60;23.10;;;;;;;5.83;90.99;99067.27;131100;1256;107625;-81
2023/12/13 04:21:22;;;;;;;50.90;23.30;;;;;;;5.84;90.74;99069.13;130992;1254;107215;-81
2023/12/13 04:24:28;;;;;;;46.70;23.70;;;;;;;5.84;90.95;99074.06;131066;1264;107237;-82
2023/12/13 04:27:33;;;;;;;50.40;23.30;;;;;;;5.86;91.05;99070.14;131096;1256;107637;-81
2023/12/13 04:30:39;;;;;;;47.00;23.20;;;;;;;5.87;91.16;99072.51;131023;1267;107630;-81
2023/12/13 04:33:44;;;;;;;46.20;23.90;;;;;;;5.87;90.91;99075.17;131075;1251;107577;-80
2023/12/13 04:36:50;;;;;;;46.80;22.80;;;;;;;5.86;90.98;99073.58;131048;1256;107567;-80
2023/12/13 04:39:55;;;;;;;49.00;23.00;;;;;;;5.86;90.87;99074.08;130904;1258;107693;-80
2023/12/13 04:43:02;;;;;;;49.40;24.10;;;;;;;5.87;90.93;99075.77;130926;1254;107526;-81
2023/12/13 04:46:08;;;;;;;46.40;25.60;;;;;;;5.88;90.76;99071.05;131081;1254;107285;-81
2023/12/13 04:49:13;;;;;;;48.40;25.00;;;;;;;5.89;90.90;99064.58;131080;1255;105892;-81
2023/12/13 04:52:19;;;;;;;56.00;28.50;;;;;;;5.91;90.83;99061.77;131295;1251;107672;-81
2023/12/13 04:55:25;;;;;;;52.10;27.80;;;;;;;5.91;90.53;99057.04;131218;1254;107590;-80
2023/12/13 04:58:31;;;;;;;54.10;28.80;;;;;;;5.89;90.71;99052.00;131181;1255;107252;-79
2023/12/13 05:01:37;;;;;;;58.50;30.30;;;;;;;5.87;90.70;99040.60;131066;1251;107510;-81
2023/12/13 05:04:42;;;;;;;51.60;26.80;;;;;;;5.84;90.81;99034.91;131154;1254;107114;-80
2023/12/13 05:07:48;;;;;;;165.50;81.10;;;;;;;5.82;90.82;99037.98;131116;1265;107502;-82
2023/12/13 05:10:54;;;;;;;102.40;46.10;;;;;;;5.85;91.04;99036.08;131153;1254;107545;-82
2023/12/13 05:14:00;;;;;;;89.60;40.60;;;;;;;5.89;90.90;99037.44;131250;1257;106690;-82
2023/12/13 05:17:05;;;;;;;75.80;37.20;;;;;;;5.88;90.90;99035.54;131209;1254;107539;-82
2023/12/13 05:20:12;;;;;;;53.70;27.90;;;;;;;5.88;90.73;99032.42;131419;1252;107543;-81
2023/12/13 05:23:17;;;;;;;52.90;27.20;;;;;;;5.83;90.37;99025.80;131089;1255;107621;-80
2023/12/13 05:26:23;;;;;;;50.30;26.20;;;;;;;5.81;90.35;99019.86;131060;1257;107269;-80
2023/12/13 05:29:28;;;;;;;48.10;24.70;;;;;;;5.75;90.54;99014.98;131144;1254;109195;-80
2023/12/13 05:32:34;;;;;;;47.90;25.20;;;;;;;5.72;90.63;99013.67;131254;1256;105698;-80
2023/12/13 05:35:40;;;;;;;53.70;26.10;;;;;;;5.73;90.77;99012.32;131335;1251;105498;-80
2023/12/13 05:38:46;;;;;;;48.70;26.10;;;;;;;5.75;90.74;99015.16;131428;1263;107581;-80
2023/12/13 05:41:52;;;;;;;46.40;25.00;;;;;;;5.78;90.76;99010.31;131141;1265;107564;-80
2023/12/13 05:44:57;;;;;;;50.10;25.70;;;;;;;5.77;90.63;99009.33;131121;1251;107543;-80
2023/12/13 05:48:03;;;;;;;51.00;27.10;;;;;;;5.74;90.54;99009.25;131193;1254;107524;-80
2023/12/13 05:51:09;;;;;;;50.00;27.60;;;;;;;5.72;90.60;99009.45;130958;1254;107486;-82
2023/12/13 05:54:15;;;;;;;72.60;38.50;;;;;;;5.70;90.71;99010.40;131144;1253;107477;-81
2023/12/13 05:57:20;;;;;;;51.90;26.90;;;;;;;5.64;90.59;99013.23;130917;1256;107561;-79
2023/12/13 06:00:26;;;;;;;43.30;23.20;;;;;;;5.61;90.83;99012.02;130929;1264;107211;-81
2023/12/13 06:03:31;;;;;;;51.50;29.20;;;;;;;5.62;90.45;99018.40;131111;1251;107321;-81
2023/12/13 06:06:37;;;;;;;72.90;34.40;;;;;;;5.63;90.95;99019.34;131101;1267;107521;-81
2023/12/13 06:09:44;;;;;;;71.20;32.90;;;;;;;5.67;90.59;99019.32;131038;1251;107572;-82
2023/12/13 06:12:52;;;;;;;65.30;30.70;;;;;;;5.71;90.49;99016.40;130991;1251;107365;-82
2023/12/13 06:15:58;;;;;;;51.60;28.70;;;;;;;5.70;90.31;99011.20;131107;1257;107496;-81
2023/12/13 06:19:03;;;;;;;59.00;31.40;;;;;;;5.69;90.11;99007.45;130971;1256;107280;-81
2023/12/13 06:22:10;;;;;;;78.70;41.90;;;;;;;5.67;90.33;99002.14;131140;1257;107634;-83
2023/12/13 06:25:16;;;;;;;64.40;32.40;;;;;;;5.64;90.35;99002.32;131003;1253;107603;-81
2023/12/13 06:28:22;;;;;;;50.70;28.10;;;;;;;5.59;90.34;99000.86;131118;1256;108594;-80
2023/12/13 06:31:28;;;;;;;52.40;30.60;;;;;;;5.58;90.33;99003.33;131033;1254;107535;-84
2023/12/13 06:34:33;;;;;;;53.00;29.70;;;;;;;5.56;90.53;99008.20;131049;1257;107527;-83
2023/12/13 06:37:39;;;;;;;51.90;29.20;;;;;;;5.59;90.69;99012.04;131132;1254;107710;-83
2023/12/13 06:40:45;;;;;;;49.70;27.20;;;;;;;5.62;90.42;99008.91;131029;1258;106546;-82
2023/12/13 06:43:50;;;;;;;48.00;27.00;;;;;;;5.63;90.57;99005.71;131057;1254;107542;-83
2023/12/13 06:46:57;;;;;;;46.50;28.00;;;;;;;5.63;90.47;99005.79;131043;1253;107460;-82
2023/12/13 06:50:03;;;;;;;41.00;23.40;;;;;;;5.59;90.45;99007.08;130988;1256;107286;-82
2023/12/13 06:53:09;;;;;;;40.00;23.00;;;;;;;5.57;90.63;99004.80;131111;1256;108631;-83
2023/12/13 06:56:15;;;;;;;42.40;23.80;;;;;;;5.56;90.29;99003.30;131112;1253;107327;-84
2023/12/13 06:59:20;;;;;;;42.80;25.00;;;;;;;5.58;90.61;99006.83;131014;1252;107666;-83
2023/12/13 07:02:26;;;;;;;45.00;26.50;;;;;;;5.59;90.69;99000.04;130971;1252;107756;-82
2023/12/13 07:05:31;;;;;;;51.70;29.00;;;;;;;5.60;90.41;98994.80;131096;1268;107469;-83
2023/12/13 07:08:37;;;;;;;60.10;31.40;;;;;;;5.59;90.52;98986.23;131133;1267;107531;-83
2023/12/13 07:11:43;;;;;;;63.90;32.60;;;;;;;5.57;90.67;98982.88;131040;1254;107390;-82
2023/12/13 07:14:48;;;;;;;50.20;25.80;;;;;;;5.57;90.53;98982.21;131120;1256;107580;-85
2023/12/13 07:17:54;;;;;;;46.50;25.70;;;;;;;5.56;90.38;98981.24;131094;1258;107493;-82
2023/12/13 07:20:59;;;;;;;60.60;32.50;;;;;;;5.57;90.49;98986.81;131241;1254;107616;-82
2023/12/13 07:24:06;;;;;;;62.30;34.60;;;;;;;5.58;90.35;98986.36;131101;1253;107510;-84
2023/12/13 07:27:12;;;;;;;59.60;33.20;;;;;;;5.61;90.61;98982.51;131328;1256;107201;-84
2023/12/13 07:30:18;;;;;;;48.20;27.80;;;;;;;5.64;90.38;98978.86;131275;1256;107490;-85
2023/12/13 07:33:23;;;;;;;43.90;26.00;;;;;;;5.64;90.16;98971.27;131375;1256;107581;-85
2023/12/13 07:36:29;;;;;;;45.00;26.00;;;;;;;5.62;90.37;98970.20;131086;1251;107366;-84
2023/12/13 07:39:36;;;;;;;39.00;22.50;;;;;;;5.59;90.15;98964.77;131052;1256;108032;-84
2023/12/13 07:42:42;;;;;;;47.30;26.10;;;;;;;5.56;90.23;98960.61;131209;1256;107444;-84
2023/12/13 07:45:51;;;;;;;53.00;31.10;;;;;;;5.57;90.10;98949.73;131294;1256;107509;-84
2023/12/13 07:49:03;;;;;;;56.50;32.80;;;;;;;5.60;90.27;98948.04;131033;1264;107391;-84
2023/12/13 07:52:09;;;;;;;53.50;32.30;;;;;;;5.62;90.11;98942.54;131015;1251;107287;-82
2023/12/13 07:55:18;;;;;;;47.70;28.40;;;;;;;5.63;90.13;98940.81;131164;1251;106418;-83
2023/12/13 07:58:24;;;;;;;47.20;26.90;;;;;;;5.63;90.12;98940.33;131065;1274;107258;-83
2023/12/13 08:01:29;;;;;;;50.70;28.80;;;;;;;5.63;90.09;98945.65;130994;1253;107515;-83
2023/12/13 08:04:35;;;;;;;49.00;26.20;;;;;;;5.62;90.05;98948.55;130987;1256;107518;-83
2023/12/13 08:07:40;;;;;;;49.30;26.50;;;;;;;5.62;90.06;98948.19;131045;1253;107608;-82
2023/12/13 08:10:46;;;;;;;55.60;30.60;;;;;;;5.63;90.19;98948.23;131027;1254;107113;-82
2023/12/13 08:13:52;;;;;;;51.10;29.70;;;;;;;5.66;89.95;98949.74;131051;1257;107726;-82
2023/12/13 08:16:58;;;;;;;49.50;29.40;;;;;;;5.68;89.99;98945.95;131096;1253;108556;-84
2023/12/13 08:20:06;;;;;;;52.00;31.30;;;;;;;5.72;90.00;98949.35;131012;1255;108750;-81
2023/12/13 08:23:12;;;;;;;51.10;31.60;;;;;;;5.76;89.97;98951.04;131010;1251;107240;-82
2023/12/13 08:26:17;;;;;;;48.70;30.30;;;;;;;5.77;90.12;98954.62;131133;1251;108697;-82
2023/12/13 08:29:23;;;;;;;51.90;30.90;;;;;;;5.77;89.90;98951.77;131605;1251;108916;-84
2023/12/13 08:32:29;;;;;;;45.40;26.80;;;;;;;5.77;90.05;98950.45;131550;1254;107671;-84
2023/12/13 08:35:35;;;;;;;42.50;24.60;;;;;;;5.78;89.88;98941.79;131174;1252;107117;-84
2023/12/13 08:38:41;;;;;;;42.30;25.90;;;;;;;5.80;89.80;98940.04;131147;1251;108735;-84
2023/12/13 08:41:47;;;;;;;49.00;29.60;;;;;;;5.81;89.98;98937.76;131074;1253;108807;-84
2023/12/13 08:44:52;;;;;;;47.40;29.20;;;;;;;5.84;90.10;98938.16;131122;1255;107295;-83
2023/12/13 08:47:58;;;;;;;48.10;28.10;;;;;;;5.88;89.90;98939.05;131079;1254;106747;-82
2023/12/13 08:51:04;;;;;;;46.60;27.80;;;;;;;5.88;89.89;98934.58;131048;1257;107637;-83
2023/12/13 08:54:10;;;;;;;46.60;28.70;;;;;;;5.87;90.03;98927.13;131085;1256;108768;-83
2023/12/13 08:57:16;;;;;;;44.40;25.10;;;;;;;5.86;89.84;98927.90;131033;1253;106722;-82
2023/12/13 09:00:23;;;;;;;40.10;23.60;;;;;;;5.88;89.97;98925.84;131199;1252;108578;-84
2023/12/13 09:03:29;;;;;;;42.20;25.80;;;;;;;5.89;89.97;98924.83;131344;1250;106596;-82
2023/12/13 09:06:34;;;;;;;43.70;26.10;;;;;;;5.95;89.66;98926.06;131320;1253;108719;-83
2023/12/13 09:09:40;;;;;;;40.50;25.30;;;;;;;5.99;89.86;98933.36;131331;1253;106596;-82
2023/12/13 09:12:46;;;;;;;45.30;27.20;;;;;;;6.03;89.97;98930.09;131295;1250;107490;-82
2023/12/13 09:15:51;;;;;;;56.80;33.90;;;;;;;6.06;89.97;98933.73;132146;1264;106221;-82
2023/12/13 09:18:57;;;;;;;72.40;41.10;;;;;;;6.06;89.84;98936.84;131316;1250;108476;-82
2023/12/13 09:22:04;;;;;;;73.30;37.10;;;;;;;6.08;89.59;98925.52;131336;1248;108573;-82
2023/12/13 09:25:12;;;;;;;54.40;27.50;;;;;;;6.11;89.95;98927.77;131344;1252;108704;-82
2023/12/13 09:28:18;;;;;;;50.40;27.10;;;;;;;6.12;89.96;98925.48;131280;1261;108648;-82
2023/12/13 09:31:25;;;;;;;104.00;43.70;;;;;;;6.14;89.50;98926.05;131357;1251;107514;-82
2023/12/13 09:34:31;;;;;;;74.70;38.50;;;;;;;6.16;89.63;98918.41;131346;1251;108641;-82
2023/12/13 09:37:36;;;;;;;82.20;39.40;;;;;;;6.20;89.96;98921.39;131268;1253;108548;-82
2023/12/13 09:40:42;;;;;;;62.00;34.10;;;;;;;6.23;89.82;98921.61;131293;1251;107413;-82
2023/12/13 09:43:50;;;;;;;65.10;36.70;;;;;;;6.24;89.73;98922.84;131385;1253;107574;-82
2023/12/13 09:46:59;;;;;;;58.60;33.70;;;;;;;6.24;89.78;98920.19;131305;1253;107736;-82
2023/12/13 09:50:06;;;;;;;71.80;40.50;;;;;;;6.26;89.83;98917.51;131375;1261;107006;-83
2023/12/13 09:53:12;;;;;;;61.60;33.40;;;;;;;6.28;90.08;98915.41;131366;1251;108592;-83
2023/12/13 09:56:19;;;;;;;47.60;26.70;;;;;;;6.30;89.70;98914.83;131309;1253;106000;-82
2023/12/13 09:59:25;;;;;;;67.90;36.60;;;;;;;6.34;89.68;98911.58;131272;1248;108633;-83
2023/12/13 10:02:31;;;;;;;59.70;31.90;;;;;;;6.42;89.84;98909.77;131329;1248;107736;-82
2023/12/13 10:05:40;;;;;;;52.20;31.00;;;;;;;6.51;89.46;98908.08;131405;1253;107743;-83
2023/12/13 10:08:56;;;;;;;47.20;28.70;;;;;;;6.57;89.39;98907.47;131255;1252;108657;-82
2023/12/13 10:12:05;;;;;;;55.80;32.40;;;;;;;6.59;89.43;98906.52;131394;1253;108821;-82
2023/12/13 10:15:13;;;;;;;48.60;29.20;;;;;;;6.59;89.43;98900.52;131421;1249;108340;-82
2023/12/13 10:18:19;;;;;;;52.20;29.80;;;;;;;6.58;89.22;98897.61;131347;1254;107501;-82
2023/12/13 10:21:25;;;;;;;54.50;27.10;;;;;;;6.56;89.32;98894.64;131421;1253;108762;-81
2023/12/13 10:24:31;;;;;;;51.90;26.80;;;;;;;6.55;89.16;98890.03;131454;1253;107163;-82
2023/12/13 10:27:37;;;;;;;42.50;24.70;;;;;;;6.52;89.04;98887.80;131364;1248;108692;-82
2023/12/13 10:30:42;;;;;;;46.50;26.90;;;;;;;6.52;88.85;98890.46;131278;1253;108135;-82
2023/12/13 10:33:48;;;;;;;45.10;26.60;;;;;;;6.55;88.87;98882.71;131342;1252;108267;-82
2023/12/13 10:36:56;;;;;;;47.60;28.10;;;;;;;6.57;88.66;98886.99;131256;1248;107925;-82
2023/12/13 10:40:03;;;;;;;48.40;28.70;;;;;;;6.58;89.02;98887.43;131310;1253;106508;-82
2023/12/13 10:43:11;;;;;;;49.50;30.70;;;;;;;6.59;88.76;98881.60;131407;1248;108571;-82
2023/12/13 10:46:19;;;;;;;45.20;26.50;;;;;;;6.61;88.71;98880.14;131361;1248;106190;-82
2023/12/13 10:49:25;;;;;;;47.20;27.50;;;;;;;6.61;88.89;98878.63;131239;1249;106721;-82
2023/12/13 10:52:33;;;;;;;39.90;23.80;;;;;;;6.60;88.76;98877.30;131451;1252;107646;-82
2023/12/13 10:55:40;;;;;;;44.80;27.50;;;;;;;6.61;88.58;98878.63;131555;1248;105574;-82
2023/12/13 10:58:46;;;;;;;43.50;26.50;;;;;;;6.66;88.65;98877.85;131476;1253;108163;-82
2023/12/13 11:01:53;;;;;;;47.30;26.40;;;;;;;6.72;88.41;98873.55;131319;1250;108738;-82
2023/12/13 11:04:59;;;;;;;43.60;25.60;;;;;;;6.80;88.13;98871.48;131553;1251;107625;-82
2023/12/13 11:08:17;;;;;;;46.10;26.80;;;;;;;6.85;88.08;98868.50;131409;1253;107344;-82
2023/12/13 11:11:29;;;;;;;49.20;28.20;;;;;;;6.89;88.45;98861.15;131502;1253;108635;-82
2023/12/13 11:14:35;;;;;;;42.30;26.10;;;;;;;6.95;88.17;98856.81;131502;1253;106165;-83
2023/12/13 11:17:41;;;;;;;43.90;26.30;;;;;;;6.96;88.02;98845.23;131537;1253;105618;-82
2023/12/13 11:20:54;;;;;;;41.90;23.20;;;;;;;6.96;88.12;98833.75;131444;1251;107671;-82
2023/12/13 11:24:09;;;;;;;43.40;24.10;;;;;;;6.95;87.99;98827.61;131482;1253;107609;-82
2023/12/13 11:27:15;;;;;;;46.10;26.10;;;;;;;6.95;87.88;98824.67;131349;1250;107612;-82
2023/12/13 11:30:23;;;;;;;48.10;28.50;;;;;;;6.91;87.85;98822.41;131323;1254;106727;-82
2023/12/13 11:33:36;;;;;;;43.40;26.20;;;;;;;6.91;87.57;98821.91;131380;1253;106924;-82
2023/12/13 11:36:42;;;;;;;36.90;22.20;;;;;;;6.88;86.82;98819.33;131332;1253;106942;-82
2023/12/13 11:39:48;;;;;;;35.70;21.50;;;;;;;6.82;86.76;98825.98;131459;1253;107104;-82
2023/12/13 11:42:54;;;;;;;38.40;22.30;;;;;;;6.76;86.68;98828.29;131307;1248;108478;-82
2023/12/13 11:46:01;;;;;;;37.50;23.10;;;;;;;6.65;86.67;98818.36;131358;1252;106452;-82
2023/12/13 11:49:07;;;;;;;35.40;21.90;;;;;;;6.60;86.80;98820.38;131264;1263;106188;-82
2023/12/13 11:52:12;;;;;;;34.60;21.90;;;;;;;6.56;86.97;98814.85;131339;1250;107728;-82
2023/12/13 11:55:20;;;;;;;34.50;20.70;;;;;;;6.48;86.94;98817.58;131283;1248;105959;-82
2023/12/13 11:58:29;;;;;;;32.40;19.50;;;;;;;6.40;87.13;98817.56;131284;1248;108332;-83
2023/12/13 12:01:35;;;;;;;33.80;20.70;;;;;;;6.37;86.88;98811.82;131242;1250;108642;-82
2023/12/13 12:04:41;;;;;;;36.90;22.10;;;;;;;6.43;86.84;98812.80;131742;1250;109107;-82
2023/12/13 12:07:57;;;;;;;35.80;23.30;;;;;;;6.47;86.70;98813.96;131266;1250;107584;-82
2023/12/13 12:11:03;;;;;;;53.10;29.50;;;;;;;6.48;86.38;98820.83;131377;1250;108700;-82
2023/12/13 12:14:11;;;;;;;39.90;25.40;;;;;;;6.46;86.23;98825.23;131494;1249;107125;-83
2023/12/13 12:17:19;;;;;;;38.60;24.50;;;;;;;6.41;85.92;98828.38;131498;1248;106450;-83
2023/12/13 12:20:26;;;;;;;37.20;23.40;;;;;;;6.32;85.63;98826.70;131472;1253;107799;-82
2023/12/13 12:23:34;;;;;;;39.10;23.40;;;;;;;6.21;85.79;98833.62;131328;1250;108710;-83
2023/12/13 12:26:40;;;;;;;39.80;24.70;;;;;;;6.08;85.58;98840.48;131519;1250;108633;-83
2023/12/13 12:29:46;;;;;;;56.10;31.10;;;;;;;6.01;86.06;98843.54;131319;1248;107389;-82
2023/12/13 12:32:52;;;;;;;38.40;21.80;;;;;;;5.96;85.97;98842.21;131326;1251;108507;-82
2023/12/13 12:35:57;;;;;;;42.90;24.50;;;;;;;5.92;85.74;98845.77;131262;1253;107624;-84
2023/12/13 12:39:03;;;;;;;39.60;23.50;;;;;;;5.93;85.47;98851.23;131405;1250;107146;-81
2023/12/13 12:42:09;;;;;;;45.40;25.70;;;;;;;5.89;85.85;98851.90;131305;1253;108914;-82
2023/12/13 12:45:17;;;;;;;55.00;29.70;;;;;;;5.87;85.69;98853.48;131257;1253;105728;-82
2023/12/13 12:48:22;;;;;;;50.70;28.70;;;;;;;5.87;85.73;98861.25;131308;1253;106446;-82
2023/12/13 12:51:28;;;;;;;50.20;27.70;;;;;;;5.83;85.55;98857.65;131207;1253;106611;-83
2023/12/13 12:54:34;;;;;;;50.80;28.40;;;;;;;5.80;85.65;98857.61;131381;1248;106613;-83
2023/12/13 12:57:40;;;;;;;49.10;27.50;;;;;;;5.73;85.43;98859.20;131516;1248;106199;-83
2023/12/13 13:00:46;;;;;;;39.80;23.70;;;;;;;5.66;85.49;98864.49;131378;1268;106424;-83
2023/12/13 13:03:51;;;;;;;39.60;23.10;;;;;;;5.60;85.87;98867.99;131240;1253;107656;-83
2023/12/13 13:06:57;;;;;;;37.00;21.70;;;;;;;5.58;85.76;98865.84;131297;1248;106279;-82
2023/12/13 13:10:04;;;;;;;41.10;24.90;;;;;;;5.58;85.82;98861.95;131337;1253;106042;-82
2023/12/13 13:13:10;;;;;;;42.40;24.40;;;;;;;5.61;85.67;98864.66;131368;1253;108650;-82
2023/12/13 13:16:16;;;;;;;38.20;24.80;;;;;;;5.64;85.63;98862.04;131289;1250;108681;-82
2023/12/13 13:19:22;;;;;;;36.20;24.00;;;;;;;5.65;85.74;98860.70;131275;1250;107608;-84
2023/12/13 13:22:27;;;;;;;38.60;24.80;;;;;;;5.63;85.37;98866.02;131526;1253;106343;-83
2023/12/13 13:25:33;;;;;;;38.70;23.70;;;;;;;5.61;85.59;98872.95;131512;1250;106449;-83
2023/12/13 13:28:39;;;;;;;41.10;24.30;;;;;;;5.54;85.32;98873.31;131339;1251;107575;-83
2023/12/13 13:31:45;;;;;;;36.50;22.30;;;;;;;5.45;85.20;98872.42;131263;1251;108642;-83
2023/12/13 13:34:51;;;;;;;37.40;22.70;;;;;;;5.37;85.38;98866.54;131257;1260;108686;-83
2023/12/13 13:37:56;;;;;;;34.90;20.20;;;;;;;5.32;85.57;98865.14;131374;1253;106338;-83
2023/12/13 13:41:02;;;;;;;49.70;28.90;;;;;;;5.25;85.46;98858.39;131559;1248;106627;-81
2023/12/13 13:44:08;;;;;;;42.60;24.90;;;;;;;5.24;85.59;98855.70;131504;1248;107466;-83
2023/12/13 13:47:14;;;;;;;37.10;21.20;;;;;;;5.26;85.46;98851.59;131545;1250;107882;-83
2023/12/13 13:50:20;;;;;;;30.40;18.70;;;;;;;5.26;85.49;98853.21;131425;1252;106385;-84
2023/12/13 13:53:26;;;;;;;29.10;17.70;;;;;;;5.21;85.53;98851.94;131519;1250;108666;-82
2023/12/13 13:56:32;;;;;;;22.90;14.90;;;;;;;5.14;85.22;98855.45;131390;1248;106771;-84
2023/12/13 13:59:38;;;;;;;34.40;20.80;;;;;;;5.07;85.45;98855.10;131416;1251;108645;-83
2023/12/13 14:02:45;;;;;;;34.30;22.30;;;;;;;5.02;85.73;98855.95;131325;1250;108711;-83
2023/12/13 14:05:54;;;;;;;40.30;25.40;;;;;;;4.99;85.71;98851.96;131315;1253;107913;-82
2023/12/13 14:09:00;;;;;;;34.40;21.30;;;;;;;4.99;85.90;98852.98;131304;1250;107232;-84
2023/12/13 14:12:08;;;;;;;33.60;19.90;;;;;;;4.98;85.82;98851.02;131298;1250;108106;-83
2023/12/13 14:15:15;;;;;;;35.90;20.50;;;;;;;4.98;85.85;98856.29;131096;1253;111117;-83
2023/12/13 14:18:20;;;;;;;32.70;19.60;;;;;;;5.01;85.91;98857.29;131248;1253;108554;-83
2023/12/13 14:21:26;;;;;;;36.20;22.10;;;;;;;5.00;85.78;98856.17;131165;1255;178291;-84
2023/12/13 14:24:32;;;;;;;37.50;22.20;;;;;;;4.98;85.77;98859.51;131377;1254;108639;-84
2023/12/13 14:27:38;;;;;;;37.50;22.50;;;;;;;4.98;85.86;98861.66;131414;1251;107589;-84
2023/12/13 14:30:44;;;;;;;38.00;23.10;;;;;;;4.92;86.01;98865.67;131331;1248;108586;-82